createdAt,value
2022-09-06T00:00:21.982Z,3.05
2022-09-06T00:02:49.515Z,2.83
2022-09-06T00:05:23.271Z,2.92
2022-09-06T00:07:50.734Z,2.90
2022-09-06T00:10:18.219Z,2.92
2022-09-06T00:12:52.370Z,2.50
2022-09-06T00:15:20.007Z,3.13
2022-09-06T00:17:47.500Z,3.03
2022-09-06T00:20:21.273Z,3.20
2022-09-06T00:22:56.163Z,3.15
2022-09-06T00:25:30.267Z,2.92
2022-09-06T00:28:05.770Z,2.80
2022-09-06T00:30:46.337Z,3.25
2022-09-06T00:33:14.506Z,2.72
2022-09-06T00:35:44.594Z,3.00
2022-09-06T00:38:18.258Z,2.90
2022-09-06T00:40:45.664Z,2.92
2022-09-06T00:43:13.184Z,3.75
2022-09-06T00:45:47.277Z,3.30
2022-09-06T00:48:15.889Z,2.72
2022-09-06T00:50:46.731Z,2.83
2022-09-06T00:53:21.275Z,2.47
2022-09-06T00:55:49.201Z,3.05
2022-09-06T00:58:16.946Z,2.75
2022-09-06T01:00:54.266Z,2.85
2022-09-06T01:03:24.441Z,2.78
2022-09-06T01:06:07.264Z,2.90
2022-09-06T01:08:53.425Z,3.10
2022-09-06T01:11:55.297Z,2.60
2022-09-06T01:15:05.987Z,2.67
2022-09-06T01:18:00.288Z,2.97
2022-09-06T01:20:46.720Z,2.83
2022-09-06T01:23:42.898Z,2.80
2022-09-06T01:26:37.903Z,3.00
2022-09-06T01:29:29.917Z,2.58
2022-09-06T01:32:32.939Z,2.88
2022-09-06T01:35:30.902Z,2.80
2022-09-06T01:38:00.268Z,2.45
2022-09-06T01:40:28.546Z,2.83
2022-09-06T01:43:06.896Z,2.88
2022-09-06T01:46:12.242Z,3.17
2022-09-06T01:49:00.969Z,3.22
2022-09-06T01:52:08.279Z,3.30
2022-09-06T01:55:07.889Z,2.90
2022-09-06T01:57:54.134Z,3.45
2022-09-06T02:00:31.870Z,2.60
2022-09-06T02:03:05.238Z,3.33
2022-09-06T02:05:51.006Z,3.30
2022-09-06T02:08:31.356Z,3.85
2022-09-06T02:11:11.014Z,3.40
2022-09-06T02:13:52.523Z,3.78
2022-09-06T02:16:31.010Z,3.17
2022-09-06T02:19:20.777Z,3.63
2022-09-06T02:21:55.950Z,3.65
2022-09-06T02:24:30.698Z,3.33
2022-09-06T02:27:04.914Z,3.33
2022-09-06T02:29:42.147Z,3.28
2022-09-06T02:32:29.902Z,3.05
2022-09-06T02:34:58.252Z,3.40
2022-09-06T02:37:26.634Z,3.10
2022-09-06T02:40:03.049Z,3.30
2022-09-06T02:42:30.658Z,3.22
2022-09-06T02:44:58.121Z,3.42
2022-09-06T02:47:31.970Z,2.90
2022-09-06T02:49:59.584Z,3.50
2022-09-06T02:52:27.473Z,2.92
2022-09-06T02:55:01.913Z,3.58
2022-09-06T02:57:29.377Z,3.20
2022-09-06T02:59:57.677Z,3.00
2022-09-06T03:02:33.015Z,3.00
2022-09-06T03:05:00.566Z,2.90
2022-09-06T03:07:28.084Z,3.28
2022-09-06T03:10:03.982Z,3.15
2022-09-06T03:12:32.029Z,3.55
2022-09-06T03:14:59.646Z,3.22
2022-09-06T03:17:33.941Z,2.80
2022-09-06T03:20:01.528Z,3.22
2022-09-06T03:22:29.000Z,3.38
2022-09-06T03:25:02.933Z,3.40
2022-09-06T03:27:30.506Z,3.22
2022-09-06T03:30:10.944Z,2.80
2022-09-06T03:32:39.520Z,3.10
2022-09-06T03:35:07.903Z,3.00
2022-09-06T03:37:42.936Z,2.75
2022-09-06T03:40:11.621Z,2.63
2022-09-06T03:42:39.104Z,3.20
2022-09-06T03:45:13.961Z,2.83
2022-09-06T03:47:42.326Z,2.80
2022-09-06T03:50:10.142Z,3.25
2022-09-06T03:52:43.956Z,2.80
2022-09-06T03:55:12.139Z,2.70
2022-09-06T03:57:39.606Z,2.30
2022-09-06T04:00:13.973Z,2.30
2022-09-06T04:02:41.887Z,2.20
2022-09-06T04:05:09.751Z,2.15
2022-09-06T04:07:44.984Z,2.20
2022-09-06T04:10:12.557Z,2.28
2022-09-06T04:12:40.022Z,2.38
2022-09-06T04:15:14.002Z,2.05
2022-09-06T04:17:45.988Z,1.92
2022-09-06T04:20:20.928Z,2.25
2022-09-06T04:22:48.408Z,2.70
2022-09-06T04:25:15.898Z,3.90
2022-09-06T04:27:52.938Z,4.70
2022-09-06T04:30:40.973Z,2.35
2022-09-06T04:33:14.976Z,2.33
2022-09-06T04:35:42.394Z,2.42
2022-09-06T04:38:09.839Z,2.15
2022-09-06T04:40:44.013Z,2.20
2022-09-06T04:43:11.480Z,2.38
2022-09-06T04:45:38.937Z,2.35
2022-09-06T04:48:12.937Z,2.70
2022-09-06T04:50:41.138Z,2.40
2022-09-06T04:53:11.045Z,2.67
2022-09-06T04:55:45.954Z,2.15
2022-09-06T04:58:13.480Z,2.25
2022-09-06T05:00:44.529Z,2.55
2022-09-06T05:03:18.964Z,2.72
2022-09-06T05:05:46.442Z,2.70
2022-09-06T05:08:13.862Z,2.90
2022-09-06T05:10:47.974Z,2.97
2022-09-06T05:13:15.432Z,4.00
2022-09-06T05:15:42.938Z,3.20
2022-09-06T05:18:16.979Z,3.25
2022-09-06T05:20:44.411Z,3.38
2022-09-06T05:23:11.901Z,3.35
2022-09-06T05:25:45.989Z,3.13
2022-09-06T05:28:33.996Z,3.95
2022-09-06T05:31:20.028Z,4.07
2022-09-06T05:33:47.491Z,3.72
2022-09-06T05:36:14.927Z,3.25
2022-09-06T05:38:48.961Z,3.15
2022-09-06T05:41:16.459Z,3.70
2022-09-06T05:43:43.986Z,4.05
2022-09-06T05:46:18.258Z,3.67
2022-09-06T05:48:53.475Z,3.33
2022-09-06T05:51:27.981Z,3.55
2022-09-06T05:53:55.443Z,3.55
2022-09-06T05:56:23.301Z,3.60
2022-09-06T05:58:56.983Z,3.40
2022-09-06T06:01:26.911Z,3.50
2022-09-06T06:04:09.025Z,3.60
2022-09-06T06:06:36.478Z,3.47
2022-09-06T06:09:03.997Z,3.72
2022-09-06T06:11:37.965Z,3.67
2022-09-06T06:14:06.000Z,3.38
2022-09-06T06:16:33.545Z,3.80
2022-09-06T06:19:08.090Z,3.80
2022-09-06T06:21:35.960Z,3.30
2022-09-06T06:24:05.149Z,3.70
2022-09-06T06:26:42.091Z,3.38
2022-09-06T06:29:30.996Z,3.63
2022-09-06T06:32:05.117Z,3.67
2022-09-06T06:34:32.673Z,3.17
2022-09-06T06:37:00.235Z,3.05
2022-09-06T06:39:34.079Z,3.58
2022-09-06T06:42:01.550Z,3.30
2022-09-06T06:44:29.065Z,3.53
2022-09-06T06:47:05.022Z,3.42
2022-09-06T06:49:32.631Z,3.50
2022-09-06T06:52:00.113Z,3.70
2022-09-06T06:54:33.997Z,3.53
2022-09-06T06:57:01.642Z,3.33
2022-09-06T06:59:29.122Z,3.50
2022-09-06T07:02:03.077Z,3.55
2022-09-06T07:04:30.702Z,3.53
2022-09-06T07:12:41.808Z,3.03
2022-09-06T07:15:16.035Z,3.75
2022-09-06T07:17:44.362Z,3.55
2022-09-06T07:25:59.414Z,3.40
2022-09-06T07:28:32.993Z,3.20
2022-09-06T07:31:07.735Z,3.50
2022-09-06T07:34:02.001Z,3.40
2022-09-06T07:36:29.393Z,3.20
2022-09-06T07:38:56.756Z,3.72
2022-09-06T07:41:31.068Z,3.75
2022-09-06T07:43:58.633Z,3.50
2022-09-06T07:46:28.858Z,3.47
2022-09-06T07:49:02.881Z,3.50
2022-09-06T07:51:30.274Z,3.80
2022-09-06T07:54:19.244Z,3.00
2022-09-06T07:56:51.898Z,3.40
2022-09-06T07:59:33.525Z,3.15
2022-09-06T08:02:07.718Z,3.75
2022-09-06T08:04:35.135Z,3.50
2022-09-06T08:09:56.600Z,3.13
2022-09-06T08:12:24.116Z,3.42
2022-09-06T08:14:51.578Z,3.40
2022-09-06T08:17:25.601Z,3.10
2022-09-06T08:19:53.051Z,4.38
2022-09-06T08:22:20.446Z,3.10
2022-09-06T08:24:54.623Z,4.10
2022-09-06T08:27:22.196Z,3.38
2022-09-06T08:30:02.638Z,3.72
2022-09-06T08:32:32.946Z,3.78
2022-09-06T08:35:00.375Z,3.42
2022-09-06T08:37:34.776Z,3.70
2022-09-06T08:40:02.506Z,3.50
2022-09-06T08:42:31.493Z,3.30
2022-09-06T08:45:06.618Z,3.38
2022-09-06T08:47:34.180Z,3.67
2022-09-06T08:50:14.679Z,3.80
2022-09-06T08:53:13.255Z,3.55
2022-09-06T08:56:00.611Z,3.53
2022-09-06T08:59:06.758Z,3.53
2022-09-06T09:02:11.741Z,4.13
2022-09-06T09:04:47.352Z,3.60
2022-09-06T09:07:39.642Z,3.63
2022-09-06T09:10:15.670Z,3.00
2022-09-06T09:12:54.623Z,3.65
2022-09-06T09:15:22.673Z,4.15
2022-09-06T09:17:52.312Z,3.17
2022-09-06T09:20:27.707Z,2.05
2022-09-06T09:22:55.645Z,2.08
2022-09-06T09:25:24.631Z,1.90
2022-09-06T09:28:06.715Z,1.80
2022-09-06T09:30:53.717Z,1.67
2022-09-06T09:33:47.597Z,1.52
2022-09-06T09:36:18.227Z,1.70
2022-09-06T09:38:47.080Z,1.70
2022-09-06T09:41:42.922Z,2.03
2022-09-06T09:44:17.330Z,1.83
2022-09-06T09:46:51.705Z,1.60
2022-09-06T09:49:25.378Z,1.40
2022-09-06T09:52:12.685Z,1.98
2022-09-06T09:54:44.342Z,2.20
2022-09-06T09:57:23.671Z,2.05
2022-09-06T10:00:01.186Z,2.75
2022-09-06T10:02:47.730Z,2.10
2022-09-06T10:05:18.001Z,2.22
2022-09-06T10:07:57.630Z,2.00
2022-09-06T10:10:43.216Z,2.35
2022-09-06T10:13:37.697Z,2.00
2022-09-06T10:16:05.990Z,2.30
2022-09-06T10:18:33.442Z,2.05
2022-09-06T10:21:17.651Z,2.10
2022-09-06T10:27:06.661Z,1.98
2022-09-06T10:30:04.867Z,2.40
2022-09-06T10:33:13.700Z,1.90
2022-09-06T10:35:42.599Z,2.28
2022-09-06T10:38:39.639Z,1.90
2022-09-06T10:41:57.175Z,2.33
2022-09-06T10:44:49.673Z,1.98
2022-09-06T10:47:18.267Z,1.90
2022-09-06T10:49:59.647Z,2.35
2022-09-06T10:52:38.571Z,2.05
2022-09-06T10:55:16.681Z,2.10
2022-09-06T11:00:53.696Z,2.13
2022-09-06T11:03:58.271Z,2.38
2022-09-06T11:06:40.855Z,2.85
2022-09-06T11:09:27.902Z,2.85
2022-09-06T11:12:22.854Z,2.75
2022-09-06T11:14:50.563Z,2.72
2022-09-06T11:17:20.945Z,3.05
2022-09-06T11:20:08.881Z,2.50
2022-09-06T11:22:51.284Z,2.70
2022-09-06T11:25:33.832Z,2.53
2022-09-06T11:28:05.812Z,2.53
2022-09-06T11:31:00.891Z,2.70
2022-09-06T11:33:40.189Z,2.90
2022-09-06T11:36:44.816Z,2.83
2022-09-06T11:39:13.092Z,2.45
2022-09-06T11:41:42.679Z,2.90
2022-09-06T11:44:17.846Z,3.00
2022-09-06T11:46:45.550Z,2.78
2022-09-06T11:49:16.024Z,2.65
2022-09-06T11:51:51.864Z,2.70
2022-09-06T11:54:27.579Z,2.50
2022-09-06T11:57:19.917Z,3.13
2022-09-06T11:59:47.820Z,3.22
2022-09-06T12:02:39.129Z,3.17
2022-09-06T12:05:09.666Z,3.17
2022-09-06T12:08:22.918Z,3.50
2022-09-06T12:11:27.094Z,3.50
2022-09-06T12:14:15.905Z,3.80
2022-09-06T12:17:09.877Z,3.47
2022-09-06T12:20:05.962Z,3.20
2022-09-06T12:22:33.551Z,3.40
2022-09-06T12:25:26.925Z,3.00
2022-09-06T12:27:59.820Z,3.70
2022-09-06T12:30:57.963Z,2.88
2022-09-06T12:33:36.988Z,3.05
2022-09-06T12:36:43.029Z,3.25
2022-09-06T12:39:14.436Z,3.20
2022-09-06T12:41:56.028Z,3.00
2022-09-06T12:44:51.292Z,3.15
2022-09-06T12:47:37.344Z,2.75
2022-09-06T12:50:18.059Z,3.05
2022-09-06T12:52:57.287Z,3.10
2022-09-06T12:55:27.757Z,3.50
2022-09-06T12:58:05.317Z,3.10
2022-09-06T13:00:42.704Z,2.75
2022-09-06T13:03:49.332Z,6.75
2022-09-06T13:06:26.866Z,5.22
2022-09-06T13:09:04.963Z,5.38
2022-09-06T13:11:38.738Z,5.53
2022-09-06T13:14:34.146Z,4.53
2022-09-06T13:17:02.128Z,4.72
2022-09-06T13:19:48.423Z,4.75
2022-09-06T13:22:45.375Z,5.63
2022-09-06T13:25:30.411Z,5.68
2022-09-06T13:27:58.291Z,5.63
2022-09-06T13:30:54.389Z,3.70
2022-09-06T13:33:24.910Z,3.67
2022-09-06T13:36:13.380Z,4.00
2022-09-06T13:38:42.519Z,4.25
2022-09-06T13:41:34.405Z,3.90
2022-09-06T13:44:16.786Z,3.15
2022-09-06T13:46:51.472Z,3.03
2022-09-06T13:49:18.931Z,3.30
2022-09-06T13:51:47.538Z,3.83
2022-09-06T13:54:22.417Z,4.10
2022-09-06T13:56:50.434Z,3.60
2022-09-06T13:59:18.920Z,4.40
2022-09-06T14:01:56.442Z,4.53
2022-09-06T14:04:28.801Z,4.75
2022-09-06T14:06:57.089Z,4.13
2022-09-06T14:09:31.630Z,3.97
2022-09-06T14:12:04.873Z,4.20
2022-09-06T14:14:34.797Z,4.05
2022-09-06T14:17:09.924Z,4.47
2022-09-06T14:19:37.688Z,5.43
2022-09-06T14:22:09.489Z,5.40
2022-09-06T14:27:14.429Z,3.60
2022-09-06T14:30:01.781Z,4.78
2022-09-06T14:32:29.337Z,4.88
2022-09-06T14:34:57.308Z,3.88
2022-09-06T14:37:31.951Z,8.70
2022-09-06T14:39:59.645Z,109.47
2022-09-06T14:42:28.564Z,116.53
2022-09-06T14:45:02.901Z,3.00
2022-09-06T14:47:32.109Z,3.45
2022-09-06T14:50:00.587Z,3.97
2022-09-06T14:52:35.165Z,4.97
2022-09-06T14:55:02.886Z,5.10
2022-09-06T14:57:31.354Z,6.45
2022-09-06T15:00:05.780Z,5.53
2022-09-06T15:02:34.316Z,12.52
2022-09-06T15:05:02.733Z,17.35
2022-09-06T15:07:37.786Z,134.88
2022-09-06T15:10:05.690Z,216.05
2022-09-06T15:12:33.291Z,204.90
2022-09-06T15:15:07.785Z,303.45
2022-09-06T15:17:35.253Z,306.20
2022-09-06T15:20:06.074Z,325.48
2022-09-06T15:23:09.253Z,367.25
2022-09-06T15:25:30.122Z,403.65
2022-09-06T15:28:03.808Z,318.58
2022-09-06T15:30:40.007Z,304.70
2022-09-06T15:33:14.811Z,315.38
2022-09-06T15:35:43.792Z,334.33
2022-09-06T15:38:14.296Z,341.27
2022-09-06T15:40:49.854Z,4.20
2022-09-06T15:43:17.384Z,4.13
2022-09-06T15:45:56.889Z,3.97
2022-09-06T15:48:25.496Z,4.20
2022-09-06T15:50:53.452Z,3.90
2022-09-06T15:53:27.945Z,3.80
2022-09-06T15:56:00.904Z,3.25
2022-09-06T15:58:35.841Z,3.33
2022-09-06T16:01:18.553Z,3.05
2022-09-06T16:03:55.822Z,3.30
2022-09-06T16:06:27.636Z,3.53
2022-09-06T16:09:20.799Z,3.55
2022-09-06T16:11:48.621Z,2.97
2022-09-06T16:14:18.457Z,2.88
2022-09-06T16:16:53.888Z,3.38
2022-09-06T16:19:21.805Z,3.20
2022-09-06T16:21:49.377Z,3.70
2022-09-06T16:24:27.828Z,3.50
2022-09-06T16:26:57.346Z,3.38
2022-09-06T16:29:24.889Z,3.50
2022-09-06T16:32:06.426Z,3.60
2022-09-06T16:34:33.953Z,3.55
2022-09-06T16:37:14.315Z,4.00
2022-09-06T16:39:42.418Z,3.72
2022-09-06T16:42:10.097Z,4.53
2022-09-06T16:44:46.653Z,4.70
2022-09-06T16:47:16.569Z,4.68
2022-09-06T16:49:44.783Z,4.50
2022-09-06T16:52:18.549Z,4.47
2022-09-06T16:54:46.236Z,5.15
2022-09-06T16:57:15.444Z,5.05
2022-09-06T16:59:49.585Z,4.90
2022-09-06T17:02:18.351Z,5.53
2022-09-06T17:04:46.548Z,5.55
2022-09-06T17:07:20.877Z,4.90
2022-09-06T17:09:49.115Z,4.97
2022-09-06T17:12:17.180Z,5.28
2022-09-06T17:14:51.886Z,5.47
2022-09-06T17:17:19.620Z,5.13
2022-09-06T17:19:47.200Z,5.00
2022-09-06T17:22:21.469Z,5.40
2022-09-06T17:24:49.160Z,5.35
2022-09-06T17:27:16.832Z,4.80
2022-09-06T17:29:50.578Z,4.97
2022-09-06T17:32:24.831Z,5.45
2022-09-06T17:35:00.607Z,5.03
2022-09-06T17:37:28.312Z,5.00
2022-09-06T17:39:55.818Z,5.45
2022-09-06T17:42:29.504Z,5.43
2022-09-06T17:44:58.019Z,5.65
2022-09-06T17:47:25.546Z,5.30
2022-09-06T17:49:59.668Z,5.32
2022-09-06T17:52:27.383Z,5.97
2022-09-06T17:54:55.200Z,5.53
2022-09-06T17:57:29.540Z,5.70
2022-09-06T17:59:57.206Z,5.40
2022-09-06T18:02:25.033Z,5.07
2022-09-06T18:05:02.584Z,5.55
2022-09-06T18:07:30.387Z,5.15
2022-09-06T18:09:58.602Z,5.03
2022-09-06T18:12:37.584Z,5.90
2022-09-06T18:15:06.843Z,6.03
2022-09-06T18:17:34.489Z,5.35
2022-09-06T18:20:11.913Z,5.85
2022-09-06T18:22:40.179Z,5.85
2022-09-06T18:25:08.970Z,5.85
2022-09-06T18:27:42.662Z,5.45
2022-09-06T18:30:30.588Z,5.65
2022-09-06T18:33:04.636Z,5.80
2022-09-06T18:35:32.209Z,5.95
2022-09-06T18:37:59.947Z,5.47
2022-09-06T18:40:33.686Z,5.13
2022-09-06T18:43:03.482Z,5.70
2022-09-06T18:45:34.124Z,5.68
2022-09-06T18:48:08.103Z,5.80
2022-09-06T18:50:39.064Z,5.38
2022-09-06T18:53:17.200Z,5.50
2022-09-06T18:55:44.718Z,5.72
2022-09-06T18:58:15.184Z,5.40
2022-09-06T19:00:49.261Z,4.47
2022-09-06T19:03:17.234Z,5.80
2022-09-06T19:05:46.736Z,5.43
2022-09-06T19:08:20.702Z,5.75
2022-09-06T19:10:48.336Z,5.28
2022-09-06T19:13:16.086Z,5.38
2022-09-06T19:15:51.668Z,5.70
2022-09-06T19:18:20.147Z,5.25
2022-09-06T19:21:04.724Z,6.00
2022-09-06T19:23:33.985Z,5.57
2022-09-06T19:26:25.739Z,6.40
2022-09-06T19:28:59.995Z,6.13
2022-09-06T19:31:42.757Z,6.63
2022-09-06T19:34:17.869Z,6.53
2022-09-06T19:36:52.715Z,5.65
2022-09-06T19:39:21.534Z,6.65
2022-09-06T19:41:49.041Z,6.22
2022-09-06T19:44:23.686Z,6.78
2022-09-06T19:46:51.386Z,7.00
2022-09-06T19:49:19.801Z,6.35
2022-09-06T19:51:55.739Z,5.90
2022-09-06T19:54:24.962Z,6.43
2022-09-06T19:56:52.773Z,6.70
2022-09-06T19:59:26.749Z,6.53
2022-09-06T20:01:55.894Z,6.18
2022-09-06T20:04:23.673Z,6.10
2022-09-06T20:06:57.766Z,6.40
2022-09-06T20:09:25.213Z,6.43
2022-09-06T20:12:05.745Z,6.60
2022-09-06T20:14:39.911Z,6.82
2022-09-06T20:17:32.963Z,5.97
2022-09-06T20:20:01.208Z,5.75
2022-09-06T20:22:35.784Z,5.88
2022-09-06T20:25:03.316Z,6.47
2022-09-06T20:27:31.526Z,6.00
2022-09-06T20:30:05.780Z,5.50
2022-09-06T20:32:46.862Z,5.10
2022-09-06T20:35:20.764Z,5.43
2022-09-06T20:37:48.624Z,4.78
2022-09-06T20:40:16.236Z,4.50
2022-09-06T20:42:53.257Z,4.32
2022-09-06T20:45:23.256Z,4.32
2022-09-06T20:47:50.954Z,4.30
2022-09-06T20:50:24.802Z,3.85
2022-09-06T20:52:53.261Z,4.30
2022-09-06T20:55:20.764Z,3.40
2022-09-06T20:57:59.826Z,3.80
2022-09-06T21:00:30.679Z,3.90
2022-09-06T21:02:58.616Z,3.55
2022-09-06T21:05:32.199Z,4.00
2022-09-06T21:07:59.986Z,3.35
2022-09-06T21:10:27.555Z,3.30
2022-09-06T21:13:05.128Z,3.70
2022-09-06T21:15:41.132Z,3.90
2022-09-06T21:18:16.274Z,3.85
2022-09-06T21:20:43.851Z,3.85
2022-09-06T21:23:15.401Z,3.60
2022-09-06T21:25:51.498Z,3.28
2022-09-06T21:28:19.066Z,3.00
2022-09-06T21:31:23.774Z,3.40
2022-09-06T21:33:53.888Z,3.45
2022-09-06T21:36:44.723Z,3.08
2022-09-06T21:39:13.066Z,3.03
2022-09-06T21:41:42.477Z,3.05
2022-09-06T21:44:17.657Z,2.95
2022-09-06T21:46:45.396Z,3.10
2022-09-06T21:49:14.039Z,2.85
2022-09-06T21:51:50.507Z,2.90
2022-09-06T21:54:18.363Z,2.80
2022-09-06T21:56:46.759Z,2.40
2022-09-06T21:59:20.564Z,2.60
2022-09-06T22:01:48.243Z,3.20
2022-09-06T22:04:16.034Z,3.13
2022-09-06T22:06:51.696Z,3.47
2022-09-06T22:09:19.300Z,3.20
2022-09-06T22:11:47.025Z,3.08
2022-09-06T22:14:22.620Z,3.28
2022-09-06T22:16:52.061Z,2.80
2022-09-06T22:19:19.531Z,2.88
2022-09-06T22:21:53.501Z,2.58
2022-09-06T22:24:21.394Z,3.15
2022-09-06T22:26:48.908Z,2.55
2022-09-06T22:29:39.677Z,2.45
2022-09-06T22:32:13.724Z,2.70
2022-09-06T22:34:48.579Z,2.28
2022-09-06T22:37:16.727Z,2.58
2022-09-06T22:39:44.385Z,2.20
2022-09-06T22:42:18.615Z,3.17
2022-09-06T22:44:46.219Z,2.40
2022-09-06T22:47:13.634Z,2.50
2022-09-06T22:49:47.575Z,1.98
2022-09-06T22:52:15.100Z,2.30
2022-09-06T22:54:42.603Z,2.22
2022-09-06T22:57:16.551Z,2.40
2022-09-06T22:59:44.075Z,2.33
2022-09-06T23:02:11.649Z,2.17
2022-09-06T23:04:45.590Z,2.13
2022-09-06T23:07:13.120Z,2.45
2022-09-06T23:09:40.580Z,2.17
2022-09-06T23:12:14.583Z,2.50
2022-09-06T23:14:42.036Z,2.30
2022-09-06T23:17:10.480Z,2.28
2022-09-06T23:19:44.545Z,2.63
2022-09-06T23:22:12.223Z,2.28
2022-09-06T23:24:41.236Z,2.45
2022-09-06T23:27:15.516Z,2.35
2022-09-06T23:29:46.002Z,2.90
2022-09-06T23:32:33.553Z,2.92
2022-09-06T23:35:01.002Z,2.70
2022-09-06T23:37:28.497Z,2.83
2022-09-06T23:40:07.028Z,2.28
2022-09-06T23:42:36.539Z,2.30
2022-09-06T23:45:10.552Z,2.13
2022-09-06T23:47:38.225Z,2.50
2022-09-06T23:50:06.810Z,2.47
2022-09-06T23:52:40.543Z,2.25
2022-09-06T23:55:09.431Z,2.20
2022-09-06T23:57:36.988Z,2.00
